createdAt,value
2023-05-03T00:01:46.095Z,101951.59
2023-05-03T00:04:54.476Z,101959.22
2023-05-03T00:08:02.484Z,101957.53
2023-05-03T00:11:09.693Z,101962.63
2023-05-03T00:14:16.694Z,101965.97
2023-05-03T00:17:22.133Z,101959.22
2023-05-03T00:20:27.996Z,101971.91
2023-05-03T00:23:35.182Z,101960.91
2023-05-03T00:26:40.619Z,101968.53
2023-05-03T00:29:45.873Z,101967.66
2023-05-03T00:32:51.786Z,101966.81
2023-05-03T00:35:57.014Z,101970.22
2023-05-03T00:39:03.968Z,101977.03
2023-05-03T00:42:10.219Z,101973.59
2023-05-03T00:45:15.423Z,101975.31
2023-05-03T00:48:20.728Z,101974.47
2023-05-03T00:51:25.973Z,101974.47
2023-05-03T00:54:33.771Z,101982.09
2023-05-03T00:57:38.726Z,101988.00
2023-05-03T01:00:44.166Z,101982.09
2023-05-03T01:03:50.801Z,101991.38
2023-05-03T01:07:04.207Z,101995.63
2023-05-03T01:13:49.305Z,102002.38
2023-05-03T01:17:03.134Z,102005.78
2023-05-03T01:20:11.398Z,102004.94
2023-05-03T01:23:23.708Z,102003.22
2023-05-03T01:26:31.166Z,102005.72
2023-05-03T01:29:36.988Z,102014.22
2023-05-03T01:32:51.965Z,102016.81
2023-05-03T01:36:00.472Z,102012.53
2023-05-03T01:39:12.390Z,102009.97
2023-05-03T01:42:19.989Z,102015.06
2023-05-03T01:45:30.699Z,102018.44
2023-05-03T01:48:36.208Z,102020.09
2023-05-03T01:51:42.114Z,102019.22
2023-05-03T01:54:47.350Z,102032.81
2023-05-03T01:57:53.942Z,102029.41
2023-05-03T02:00:59.430Z,102024.31
2023-05-03T02:04:05.281Z,102028.56
2023-05-03T02:07:10.603Z,102023.47
2023-05-03T02:10:16.393Z,102022.59
2023-05-03T02:13:22.968Z,102021.75
2023-05-03T02:16:29.332Z,102026.81
2023-05-03T02:19:35.139Z,102032.72
2023-05-03T02:22:40.535Z,102025.94
2023-05-03T02:25:45.957Z,102027.66
2023-05-03T02:28:52.840Z,102034.31
2023-05-03T02:31:58.729Z,102040.25
2023-05-03T02:35:04.049Z,102036.88
2023-05-03T02:38:12.613Z,102031.78
2023-05-03T02:41:22.007Z,102031.78
2023-05-03T02:44:30.358Z,102036.84
2023-05-03T02:47:45.106Z,102037.69
2023-05-03T02:50:50.041Z,102041.94
2023-05-03T02:53:55.752Z,102036.84
2023-05-03T02:57:01.906Z,102046.22
2023-05-03T03:00:11.681Z,102041.13
2023-05-03T03:03:17.519Z,102047.91
2023-05-03T03:06:23.150Z,102050.38
2023-05-03T03:09:28.431Z,102047.00
2023-05-03T03:12:34.366Z,102048.53
2023-05-03T03:15:42.237Z,102049.44
2023-05-03T03:18:47.606Z,102052.94
2023-05-03T03:21:56.253Z,102049.53
2023-05-03T03:25:03.025Z,102063.94
2023-05-03T03:28:08.289Z,102054.50
2023-05-03T03:31:15.986Z,102063.00
2023-05-03T03:34:21.880Z,102063.06
2023-05-03T03:37:27.478Z,102071.56
2023-05-03T03:40:33.055Z,102074.16
2023-05-03T03:43:40.709Z,102077.50
2023-05-03T03:46:53.015Z,102090.19
2023-05-03T03:49:58.227Z,102081.75
2023-05-03T03:53:03.566Z,102076.69
2023-05-03T03:56:09.398Z,102089.34
2023-05-03T03:59:14.665Z,102084.28
2023-05-03T04:02:22.676Z,102083.41
2023-05-03T04:05:28.035Z,102102.97
2023-05-03T04:08:33.565Z,102092.72
2023-05-03T04:11:39.075Z,102096.13
2023-05-03T04:14:45.928Z,102100.34
2023-05-03T04:17:52.536Z,102101.31
2023-05-03T04:20:58.027Z,102100.44
2023-05-03T04:24:06.521Z,102102.13
2023-05-03T04:27:11.769Z,102112.19
2023-05-03T04:30:17.649Z,102107.97
2023-05-03T04:33:30.104Z,102117.41
2023-05-03T04:36:40.169Z,102111.38
2023-05-03T04:39:49.408Z,102118.22
2023-05-03T04:42:55.126Z,102123.28
2023-05-03T04:46:00.935Z,102125.00
2023-05-03T04:49:08.000Z,102126.75
2023-05-03T04:52:14.597Z,102131.81
2023-05-03T04:55:19.817Z,102134.34
2023-05-03T04:58:25.459Z,102133.53
2023-05-03T05:01:31.488Z,102139.50
2023-05-03T05:04:41.630Z,102142.03
2023-05-03T05:07:47.756Z,102144.53
2023-05-03T05:10:56.097Z,102153.84
2023-05-03T05:14:05.748Z,102149.63
2023-05-03T05:17:12.491Z,102154.69
2023-05-03T05:20:19.443Z,102148.84
2023-05-03T05:23:27.949Z,102159.03
2023-05-03T05:26:33.279Z,102159.91
2023-05-03T05:29:38.810Z,102167.59
2023-05-03T05:32:44.309Z,102161.66
2023-05-03T05:35:52.683Z,102163.38
2023-05-03T05:39:00.064Z,102167.53
2023-05-03T05:42:05.470Z,102166.78
2023-05-03T05:45:13.662Z,102176.19
2023-05-03T05:48:20.383Z,102175.41
2023-05-03T05:51:28.120Z,102167.75
2023-05-03T05:54:33.440Z,102167.78
2023-05-03T05:57:38.778Z,102171.22
2023-05-03T06:00:45.213Z,102176.31
2023-05-03T06:03:51.007Z,102178.88
2023-05-03T06:06:57.919Z,102181.56
2023-05-03T06:10:04.266Z,102172.25
2023-05-03T06:13:12.115Z,102179.94
2023-05-03T06:16:18.636Z,102174.03
2023-05-03T06:19:24.739Z,102180.03
2023-05-03T06:22:31.837Z,102196.16
2023-05-03T06:25:37.807Z,102189.31
2023-05-03T06:28:43.127Z,102185.97
2023-05-03T06:31:48.274Z,102191.09
2023-05-03T06:34:54.113Z,102190.22
2023-05-03T06:38:03.434Z,102199.59
2023-05-03T06:41:08.905Z,102197.06
2023-05-03T06:44:14.959Z,102199.56
2023-05-03T06:47:21.587Z,102212.34
2023-05-03T06:50:27.055Z,102202.13
2023-05-03T06:53:33.654Z,102217.41
2023-05-03T06:56:38.985Z,102220.81
2023-05-03T06:59:44.118Z,102217.41
2023-05-03T07:02:49.565Z,102225.06
2023-05-03T07:05:55.015Z,102226.75
2023-05-03T07:09:01.589Z,102225.03
2023-05-03T07:12:07.222Z,102230.13
2023-05-03T07:15:13.914Z,102226.72
2023-05-03T07:18:19.110Z,102232.66
2023-05-03T07:21:24.473Z,102235.19
2023-05-03T07:24:30.896Z,102239.47
2023-05-03T07:27:36.125Z,102240.31
2023-05-03T07:30:41.241Z,102248.84
2023-05-03T07:33:46.536Z,102244.53
2023-05-03T07:36:52.430Z,102250.50
2023-05-03T07:39:59.026Z,102250.50
2023-05-03T07:43:04.525Z,102253.06
2023-05-03T07:46:11.248Z,102248.78
2023-05-03T07:49:16.607Z,102250.50
2023-05-03T07:52:21.964Z,102256.41
2023-05-03T07:55:29.599Z,102260.69
2023-05-03T07:58:40.248Z,102265.78
2023-05-03T08:01:45.905Z,102267.50
2023-05-03T08:04:51.288Z,102272.63
2023-05-03T08:07:56.776Z,102265.81
2023-05-03T08:11:03.725Z,102279.38
2023-05-03T08:14:08.837Z,102267.41
2023-05-03T08:17:14.197Z,102279.38
2023-05-03T08:20:19.514Z,102279.44
2023-05-03T08:23:25.847Z,102284.53
2023-05-03T08:26:32.516Z,102277.69
2023-05-03T08:29:38.406Z,102275.97
2023-05-03T08:32:43.548Z,102273.41
2023-05-03T08:35:49.379Z,102282.78
2023-05-03T08:38:54.797Z,102282.72
2023-05-03T08:42:01.861Z,102285.22
2023-05-03T08:45:08.763Z,102293.78
2023-05-03T08:48:15.754Z,102290.38
2023-05-03T08:51:21.811Z,102283.53
2023-05-03T08:54:27.409Z,102305.66
2023-05-03T08:57:36.399Z,102304.00
2023-05-03T09:00:45.047Z,102298.00
2023-05-03T09:03:52.594Z,102307.34
2023-05-03T09:07:09.540Z,102298.00
2023-05-03T09:10:24.929Z,102311.59
2023-05-03T09:13:34.429Z,102310.75
2023-05-03T09:16:40.524Z,102311.56
2023-05-03T09:19:52.990Z,102320.91
2023-05-03T09:22:58.093Z,102312.41
2023-05-03T09:26:02.954Z,102316.69
2023-05-03T09:29:09.599Z,102310.69
2023-05-03T09:32:15.849Z,102325.09
2023-05-03T09:35:21.078Z,102328.59
2023-05-03T09:38:30.310Z,102325.97
2023-05-03T09:41:35.401Z,102339.53
2023-05-03T09:44:48.819Z,102340.44
2023-05-03T09:47:56.093Z,102340.41
2023-05-03T09:51:01.373Z,102342.97
2023-05-03T09:54:06.546Z,102339.44
2023-05-03T09:57:14.789Z,102346.19
2023-05-03T10:00:22.473Z,102347.91
2023-05-03T10:03:33.745Z,102347.88
2023-05-03T10:06:42.839Z,102344.44
2023-05-03T10:09:49.519Z,102335.06
2023-05-03T10:12:55.090Z,102330.69
2023-05-03T10:16:07.054Z,102346.03
2023-05-03T10:19:16.108Z,102355.50
2023-05-03T10:22:21.576Z,102345.16
2023-05-03T10:25:26.851Z,102344.22
2023-05-03T10:28:32.140Z,102345.00
2023-05-03T10:31:49.071Z,102364.63
2023-05-03T10:35:00.176Z,102349.19
2023-05-03T10:38:16.166Z,102356.91
2023-05-03T10:41:27.590Z,102362.84
2023-05-03T10:44:39.979Z,102358.53
2023-05-03T10:47:46.806Z,102371.34
2023-05-03T10:50:53.440Z,102366.31
2023-05-03T10:54:01.077Z,102366.25
2023-05-03T10:57:06.495Z,102369.59
2023-05-03T11:00:16.634Z,102371.16
2023-05-03T11:03:36.518Z,102372.06
2023-05-03T11:06:42.909Z,102378.13
2023-05-03T11:09:48.005Z,102371.25
2023-05-03T11:12:53.160Z,102373.69
2023-05-03T11:15:58.322Z,102363.22
2023-05-03T11:19:05.510Z,102382.78
2023-05-03T11:22:13.006Z,102381.94
2023-05-03T11:25:18.585Z,102374.94
2023-05-03T11:28:23.724Z,102376.63
2023-05-03T11:31:29.021Z,102376.28
2023-05-03T11:34:35.562Z,102376.03
2023-05-03T11:37:40.904Z,102372.59
2023-05-03T11:40:45.993Z,102377.78
2023-05-03T11:44:00.528Z,102383.69
2023-05-03T11:47:09.930Z,102378.69
2023-05-03T11:50:16.833Z,102388.78
2023-05-03T11:53:22.626Z,102375.09
2023-05-03T11:56:28.091Z,102386.84
2023-05-03T11:59:39.824Z,102383.41
2023-05-03T12:02:45.890Z,102384.13
2023-05-03T12:05:54.283Z,102383.56
2023-05-03T12:09:00.118Z,102382.06
2023-05-03T12:12:06.877Z,102389.22
2023-05-03T12:15:16.439Z,102393.56
2023-05-03T12:18:22.346Z,102388.59
2023-05-03T12:21:54.145Z,102398.09
2023-05-03T12:25:04.601Z,102393.84
2023-05-03T12:31:20.469Z,102393.09
2023-05-03T12:34:34.712Z,102391.47
2023-05-03T12:37:43.616Z,102385.28
2023-05-03T12:40:49.160Z,102392.72
2023-05-03T12:43:54.353Z,102396.88
2023-05-03T12:47:01.098Z,102389.09
2023-05-03T12:50:11.989Z,102388.84
2023-05-03T12:53:19.362Z,102386.22
2023-05-03T12:56:25.699Z,102387.91
2023-05-03T13:05:51.572Z,102400.19
2023-05-03T13:09:02.783Z,102382.41
2023-05-03T13:12:09.046Z,102397.88
2023-05-03T13:15:14.379Z,102391.91
2023-05-03T13:18:19.633Z,102396.25
2023-05-03T13:21:24.765Z,102404.75
2023-05-03T13:24:31.392Z,102399.59
2023-05-03T13:27:36.471Z,102401.78
2023-05-03T13:30:41.708Z,102406.94
2023-05-03T13:33:46.892Z,102405.25
2023-05-03T13:36:52.004Z,102405.44
2023-05-03T13:39:58.626Z,102396.03
2023-05-03T13:43:03.821Z,102401.94
2023-05-03T13:46:09.085Z,102408.75
2023-05-03T13:49:14.622Z,102399.16
2023-05-03T13:52:20.179Z,102392.41
2023-05-03T13:55:27.349Z,102405.97
2023-05-03T13:58:32.828Z,102406.09
2023-05-03T14:01:38.664Z,102409.50
2023-05-03T14:04:44.025Z,102399.63
2023-05-03T14:07:49.281Z,102416.81
2023-05-03T14:10:56.084Z,102435.81
2023-05-03T14:14:01.754Z,102448.41
2023-05-03T14:17:08.340Z,102490.69
2023-05-03T14:20:17.420Z,102487.28
2023-05-03T14:23:24.408Z,102488.44
2023-05-03T14:26:33.257Z,102499.03
2023-05-03T14:29:38.376Z,102501.84
2023-05-03T14:32:44.068Z,102491.69
2023-05-03T14:35:49.211Z,102490.84
2023-05-03T14:38:54.396Z,102492.34
2023-05-03T14:42:00.924Z,102485.63
2023-05-03T14:45:10.125Z,102496.84
2023-05-03T14:48:17.646Z,102491.81
2023-05-03T14:51:22.816Z,102499.50
2023-05-03T14:54:28.097Z,102499.31
2023-05-03T14:57:34.848Z,102494.25
2023-05-03T15:00:40.594Z,102483.22
2023-05-03T15:03:45.982Z,102490.84
2023-05-03T15:06:51.329Z,102503.69
2023-05-03T15:09:56.568Z,102509.84
2023-05-03T15:13:03.495Z,102509.94
2023-05-03T15:16:11.604Z,102510.75
2023-05-03T15:19:16.707Z,102528.78
2023-05-03T15:22:21.878Z,102532.25
2023-05-03T15:25:27.187Z,102529.72
2023-05-03T15:28:33.748Z,102534.81
2023-05-03T15:31:39.266Z,102554.41
2023-05-03T15:34:44.556Z,102550.97
2023-05-03T15:37:49.681Z,102552.53
2023-05-03T15:40:54.807Z,102564.38
2023-05-03T15:44:05.216Z,102567.00
2023-05-03T15:47:12.605Z,102578.75
2023-05-03T15:50:17.725Z,102574.41
2023-05-03T15:53:23.038Z,102582.13
2023-05-03T15:56:29.172Z,102593.97
2023-05-03T15:59:36.247Z,102598.28
2023-05-03T16:02:42.254Z,102599.94
2023-05-03T16:05:47.871Z,102600.66
2023-05-03T16:08:53.015Z,102610.78
2023-05-03T16:11:59.261Z,102608.25
2023-05-03T16:15:07.729Z,102608.41
2023-05-03T16:18:16.902Z,102629.53
2023-05-03T16:21:22.030Z,102626.19
2023-05-03T16:24:28.517Z,102642.97
2023-05-03T16:27:33.604Z,102643.56
2023-05-03T16:30:40.244Z,102651.91
2023-05-03T16:33:45.348Z,102658.72
2023-05-03T16:36:50.822Z,102668.81
2023-05-03T16:39:56.045Z,102670.25
2023-05-03T16:43:01.265Z,102688.25
2023-05-03T16:46:08.201Z,102671.34
2023-05-03T16:49:13.849Z,102649.47
2023-05-03T16:52:19.006Z,102631.06
2023-05-03T16:55:24.564Z,102635.75
2023-05-03T16:58:29.641Z,102642.22
2023-05-03T17:01:36.326Z,102649.97
2023-05-03T17:04:42.256Z,102648.03
2023-05-03T17:07:47.402Z,102640.31
2023-05-03T17:10:54.379Z,102634.63
2023-05-03T17:14:00.849Z,102645.59
2023-05-03T17:17:07.596Z,102636.81
2023-05-03T17:20:14.548Z,102658.53
2023-05-03T17:23:20.587Z,102657.19
2023-05-03T17:26:26.191Z,102662.34
2023-05-03T17:29:31.677Z,102653.75
2023-05-03T17:32:38.337Z,102662.78
2023-05-03T17:35:43.514Z,102672.81
2023-05-03T17:38:48.820Z,102673.84
2023-05-03T17:41:54.002Z,102673.94
2023-05-03T17:44:59.221Z,102675.38
2023-05-03T17:48:06.056Z,102669.13
2023-05-03T17:51:13.595Z,102667.69
2023-05-03T17:54:20.245Z,102670.44
2023-05-03T17:57:25.516Z,102664.53
2023-05-03T18:00:31.003Z,102677.78
2023-05-03T18:03:38.580Z,102674.25
2023-05-03T18:06:44.180Z,102682.94
2023-05-03T18:09:51.707Z,102686.44
2023-05-03T18:12:56.908Z,102699.69
2023-05-03T18:16:08.729Z,102697.69
2023-05-03T18:19:15.967Z,102700.03
2023-05-03T18:22:21.240Z,102708.69
2023-05-03T18:25:26.393Z,102706.09
2023-05-03T18:28:32.218Z,102716.03
2023-05-03T18:31:37.759Z,102712.53
2023-05-03T18:34:44.393Z,102722.38
2023-05-03T18:37:49.556Z,102724.00
2023-05-03T18:40:55.969Z,102723.28
2023-05-03T18:44:01.910Z,102738.53
2023-05-03T18:47:07.748Z,102730.06
2023-05-03T18:50:21.136Z,102743.38
2023-05-03T18:53:29.859Z,102738.28
2023-05-03T18:56:34.954Z,102754.94
2023-05-03T18:59:48.797Z,102761.34
2023-05-03T19:03:02.410Z,102759.19
2023-05-03T19:06:09.281Z,102761.97
2023-05-03T19:09:15.482Z,102765.56
2023-05-03T19:12:20.715Z,102770.53
2023-05-03T19:15:25.953Z,102769.78
2023-05-03T19:18:34.026Z,102770.75
2023-05-03T19:21:42.481Z,102775.03
2023-05-03T19:24:48.141Z,102783.09
2023-05-03T19:27:53.242Z,102781.53
2023-05-03T19:30:58.555Z,102784.38
2023-05-03T19:34:04.428Z,102780.84
2023-05-03T19:37:11.794Z,102777.50
2023-05-03T19:40:16.995Z,102780.97
2023-05-03T19:43:22.284Z,102783.25
2023-05-03T19:46:28.840Z,102782.31
2023-05-03T19:49:34.890Z,102786.25
2023-05-03T19:52:42.092Z,102790.72
2023-05-03T19:55:56.887Z,102785.72
2023-05-03T19:59:01.978Z,102796.22
2023-05-03T20:02:07.508Z,102796.31
2023-05-03T20:05:12.831Z,102807.34
2023-05-03T20:08:19.522Z,102803.75
2023-05-03T20:11:24.657Z,102800.88
2023-05-03T20:14:29.971Z,102805.25
2023-05-03T20:17:35.194Z,102808.38
2023-05-03T20:20:40.469Z,102811.31
2023-05-03T20:23:49.063Z,102807.88
2023-05-03T20:26:54.524Z,102818.94
2023-05-03T20:29:59.748Z,102815.22
2023-05-03T20:33:05.517Z,102817.78
2023-05-03T20:36:14.612Z,102817.13
2023-05-03T20:39:21.128Z,102821.47
2023-05-03T20:42:26.402Z,102821.34
2023-05-03T20:45:31.694Z,102818.03
2023-05-03T20:48:36.922Z,102814.63
2023-05-03T20:51:42.040Z,102827.44
2023-05-03T20:54:48.513Z,102826.00
2023-05-03T20:57:53.661Z,102818.03
2023-05-03T21:00:58.763Z,102814.44
2023-05-03T21:04:04.187Z,102817.16
2023-05-03T21:07:09.325Z,102816.75
2023-05-03T21:10:15.898Z,102817.38
2023-05-03T21:13:21.419Z,102815.97
2023-05-03T21:16:26.963Z,102812.25
2023-05-03T21:19:32.016Z,102822.41
2023-05-03T21:22:37.789Z,102822.84
2023-05-03T21:25:44.432Z,102820.50
2023-05-03T21:28:49.544Z,102823.84
2023-05-03T21:31:54.701Z,102819.81
2023-05-03T21:34:59.868Z,102818.16
2023-05-03T21:38:05.052Z,102821.13
2023-05-03T21:41:11.606Z,102815.22
2023-05-03T21:44:16.683Z,102817.22
2023-05-03T21:47:22.293Z,102816.25
2023-05-03T21:50:27.533Z,102817.75
2023-05-03T21:53:33.496Z,102820.50
2023-05-03T21:56:39.922Z,102829.31
2023-05-03T21:59:45.138Z,102814.72
2023-05-03T22:02:50.337Z,102825.56
2023-05-03T22:05:55.537Z,102828.81
2023-05-03T22:09:00.926Z,102826.28
2023-05-03T22:12:22.511Z,102821.38
2023-05-03T22:15:28.465Z,102821.13
2023-05-03T22:18:34.383Z,102833.81
2023-05-03T22:21:39.404Z,102833.22
2023-05-03T22:24:44.498Z,102830.69
2023-05-03T22:27:51.174Z,102829.09
2023-05-03T22:30:56.692Z,102833.22
2023-05-03T22:34:01.781Z,102829.06
2023-05-03T22:37:06.990Z,102841.47
2023-05-03T22:40:13.191Z,102843.22
2023-05-03T22:43:19.906Z,102842.25
2023-05-03T22:46:25.164Z,102834.69
2023-05-03T22:49:30.613Z,102840.63
2023-05-03T22:52:35.942Z,102841.50
2023-05-03T22:55:41.034Z,102848.88
2023-05-03T22:58:48.894Z,102849.28
2023-05-03T23:01:54.213Z,102841.06
2023-05-03T23:04:59.335Z,102845.19
2023-05-03T23:08:04.581Z,102840.28
2023-05-03T23:11:09.659Z,102842.47
2023-05-03T23:14:16.959Z,102837.66
2023-05-03T23:17:22.480Z,102849.13
2023-05-03T23:20:27.668Z,102840.53
2023-05-03T23:23:32.727Z,102852.19
2023-05-03T23:26:37.838Z,102857.19
2023-05-03T23:29:45.126Z,102854.03
2023-05-03T23:32:51.117Z,102855.94
2023-05-03T23:35:56.861Z,102859.09
2023-05-03T23:39:02.066Z,102851.66
2023-05-03T23:42:07.351Z,102861.94
2023-05-03T23:45:14.365Z,102857.31
2023-05-03T23:48:19.428Z,102861.59
2023-05-03T23:51:24.991Z,102873.19
2023-05-03T23:54:30.142Z,102876.69
2023-05-03T23:57:35.197Z,102882.78
